createdAt,value
2023-01-18T02:32:31.185Z,1.80
2023-01-18T02:35:11.122Z,1.40
2023-01-18T02:37:42.243Z,1.70
2023-01-18T02:40:24.358Z,0.90
2023-01-18T02:43:26.077Z,1.00
2023-01-18T02:46:33.226Z,1.70
2023-01-18T02:49:07.822Z,1.70
2023-01-18T02:51:38.738Z,2.40
2023-01-18T02:54:23.679Z,2.70
2023-01-18T02:57:02.439Z,2.80
2023-01-18T03:01:43.047Z,1.80
2023-01-18T03:05:43.958Z,2.60
2023-01-18T03:27:05.848Z,1.10
2023-01-18T03:30:36.780Z,2.50
2023-01-18T03:34:18.746Z,1.90
2023-01-18T03:38:12.735Z,2.00
2023-01-18T03:41:59.811Z,1.60
2023-01-18T03:45:46.888Z,1.80
2023-01-18T03:52:30.826Z,2.60
2023-01-18T03:56:14.916Z,2.40
2023-01-18T04:03:05.829Z,2.90
2023-01-18T04:06:52.703Z,1.70
2023-01-18T04:10:39.408Z,2.50
2023-01-18T04:14:26.821Z,1.90
2023-01-18T04:18:17.705Z,2.10
2023-01-18T04:21:58.439Z,3.20
2023-01-18T04:25:40.551Z,2.50
2023-01-18T04:29:21.707Z,3.20
2023-01-18T04:32:24.945Z,3.40
2023-01-18T04:35:16.392Z,2.60
2023-01-18T04:38:14.412Z,3.00
2023-01-18T04:41:30.117Z,2.90
2023-01-18T04:48:35.164Z,2.60
2023-01-18T04:51:33.673Z,1.30
2023-01-18T04:54:10.701Z,0.80
2023-01-18T04:56:41.066Z,0.70
2023-01-18T05:00:13.609Z,1.30
2023-01-18T05:04:01.127Z,1.20
2023-01-18T05:06:51.481Z,1.70
2023-01-18T05:13:56.145Z,2.10
2023-01-18T05:17:26.903Z,1.90
2023-01-18T05:21:10.376Z,1.10
2023-01-18T05:24:10.657Z,1.10
2023-01-18T05:31:02.425Z,1.40
2023-01-18T05:34:55.760Z,1.20
2023-01-18T05:39:23.631Z,1.10
2023-01-18T05:42:47.804Z,1.30
2023-01-18T05:46:19.805Z,1.30
2023-01-18T05:53:00.179Z,2.10
2023-01-18T05:57:16.046Z,1.30
2023-01-18T06:01:08.956Z,1.10
2023-01-18T06:08:56.836Z,1.50
2023-01-18T06:11:33.543Z,1.80
2023-01-18T06:14:25.452Z,1.80
2023-01-18T06:17:13.557Z,1.50
2023-01-18T06:19:40.602Z,1.80
2023-01-18T06:22:12.163Z,1.20
2023-01-18T06:24:55.125Z,1.70
2023-01-18T06:27:32.781Z,2.00
2023-01-18T06:41:51.533Z,1.90
2023-01-18T08:08:31.975Z,0.00
2023-01-18T08:11:12.771Z,0.00
2023-01-18T08:13:44.126Z,0.00
2023-01-18T08:17:14.039Z,0.50
2023-01-18T08:20:26.616Z,0.20
2023-01-18T08:23:10.669Z,0.20
2023-01-18T08:25:37.792Z,0.40
2023-01-18T08:28:36.994Z,0.50
2023-01-18T08:31:55.652Z,0.10
2023-01-18T08:35:23.845Z,0.20
2023-01-18T08:38:15.007Z,0.30
2023-01-18T08:40:42.372Z,0.20
2023-01-18T08:43:11.206Z,0.60
2023-01-18T08:45:38.482Z,0.60
2023-01-18T08:48:12.432Z,0.50
2023-01-18T08:51:06.432Z,0.50
2023-01-18T08:53:59.603Z,0.20
2023-01-18T08:56:31.635Z,0.60
2023-01-18T08:59:08.657Z,0.80
2023-01-18T09:02:27.496Z,0.90
2023-01-18T09:04:57.613Z,0.90
2023-01-18T09:07:24.899Z,1.00
2023-01-18T09:09:51.723Z,1.10
2023-01-18T09:12:21.373Z,0.90
2023-01-18T09:14:49.572Z,1.80
2023-01-18T09:18:16.126Z,0.80
2023-01-18T09:21:32.109Z,1.70
2023-01-18T11:59:29.880Z,0.00
2023-01-18T12:06:55.932Z,0.00
2023-01-18T12:10:43.677Z,0.00
2023-01-18T12:15:13.864Z,0.60
2023-01-18T12:19:50.972Z,0.10
2023-01-18T12:23:56.483Z,0.00
2023-01-18T12:31:04.263Z,0.10
2023-01-18T12:38:28.126Z,0.00
2023-01-18T12:42:14.477Z,0.20
2023-01-18T12:45:59.363Z,0.20
2023-01-18T12:49:42.216Z,0.40
2023-01-18T12:53:31.468Z,0.10
2023-01-18T12:57:13.253Z,0.20
2023-01-18T13:04:30.192Z,0.10
2023-01-18T13:08:06.221Z,0.00
2023-01-18T13:22:23.191Z,0.20
2023-01-18T13:26:08.375Z,0.40
2023-01-18T13:30:01.246Z,0.30
2023-01-18T13:33:25.253Z,0.10
2023-01-18T13:37:14.368Z,0.00
2023-01-18T13:44:06.582Z,0.10
2023-01-18T13:50:34.110Z,0.30
2023-01-18T13:54:25.434Z,0.40
2023-01-18T13:58:06.087Z,0.60
2023-01-18T14:01:48.248Z,0.40
2023-01-18T14:09:15.414Z,0.60
2023-01-18T14:13:29.127Z,0.80
2023-01-18T14:17:31.561Z,0.30
2023-01-18T14:22:05.328Z,0.30
2023-01-18T14:26:47.563Z,0.30
2023-01-18T14:31:13.257Z,0.50
2023-01-18T14:35:41.899Z,0.10
2023-01-18T14:40:01.763Z,0.40
2023-01-18T14:44:25.061Z,0.10
2023-01-18T14:52:36.090Z,0.50
2023-01-18T14:56:38.131Z,0.30
2023-01-18T14:59:58.194Z,0.10
2023-01-18T15:04:07.331Z,0.30
2023-01-18T15:08:12.251Z,0.90
2023-01-18T15:12:00.921Z,0.50
2023-01-18T15:19:20.545Z,1.80
2023-01-18T15:22:51.172Z,2.00
2023-01-18T15:26:39.914Z,2.00
2023-01-18T15:34:44.275Z,4.00
2023-01-18T15:38:25.201Z,1.00
2023-01-18T15:42:07.122Z,0.60
2023-01-18T16:31:44.405Z,3.10
2023-01-18T16:34:27.714Z,2.80
2023-01-18T16:37:58.195Z,2.10
2023-01-18T16:41:02.653Z,4.30
2023-01-18T16:47:41.914Z,3.50
2023-01-18T16:50:37.296Z,3.40
2023-01-18T16:53:12.953Z,2.90
2023-01-18T16:55:52.304Z,4.10
2023-01-18T16:58:36.386Z,3.80
2023-01-18T17:01:25.956Z,3.50
2023-01-18T17:04:38.624Z,2.70
2023-01-18T17:07:53.903Z,5.30
2023-01-18T17:10:43.883Z,4.00
2023-01-18T17:13:21.538Z,4.00
2023-01-18T17:15:52.632Z,3.60
2023-01-18T17:18:31.052Z,4.00
2023-01-18T17:21:04.348Z,4.50
2023-01-18T17:24:03.019Z,3.80
2023-01-18T17:26:47.516Z,4.60
2023-01-18T17:30:30.040Z,6.20
2023-01-18T17:34:35.165Z,4.30
2023-01-18T17:38:24.374Z,3.70
2023-01-18T17:42:05.981Z,4.60
2023-01-18T17:45:59.842Z,5.70
2023-01-18T17:49:32.463Z,7.40
2023-01-18T17:52:47.312Z,6.30
2023-01-18T17:56:27.277Z,6.20
2023-01-18T18:00:07.867Z,5.30
2023-01-18T18:02:59.848Z,6.50
2023-01-18T18:05:45.097Z,4.80
2023-01-18T18:08:33.326Z,5.40
2023-01-18T18:11:56.236Z,6.70
2023-01-18T18:16:11.706Z,7.40
2023-01-18T18:19:42.926Z,6.00
2023-01-18T18:22:38.435Z,4.40
2023-01-18T18:25:13.867Z,4.90
2023-01-18T18:27:46.821Z,5.90
2023-01-18T18:30:24.141Z,5.60
2023-01-18T18:32:54.149Z,5.40
2023-01-18T18:35:27.847Z,4.50
2023-01-18T18:38:30.588Z,5.30
2023-01-18T18:41:08.415Z,5.40
2023-01-18T18:43:49.697Z,4.70
